Time;durP1;ratioP1;P1;durP2;ratioP2;P2;SDS_P1;SDS_P2;PMS_P1;PMS_P2;Temp;Humidity;BMP_temperature;BMP_pressure;BME280_temperature;BME280_humidity;BME280_pressure;Samples;Min_cycle;Max_cycle;Signal;HPM_P1;HPM_P2
2021/05/21 00:00:02;;;;;;;2.60;2.40;;;;;;;11.63;86.67;94558.28;5116838;28;20457;-81
2021/05/21 00:02:28;;;;;;;2.87;2.67;;;;;;;11.66;85.44;94559.78;5116764;28;20462;-81
2021/05/21 00:04:54;;;;;;;2.80;2.60;;;;;;;11.69;85.83;94560.31;5116586;28;20457;-80
2021/05/21 00:07:21;;;;;;;3.10;2.80;;;;;;;11.53;85.60;94561.88;5116337;28;20474;-82
2021/05/21 00:09:47;;;;;;;2.83;2.63;;;;;;;11.42;86.21;94560.28;5097705;28;20443;-80
2021/05/21 00:12:13;;;;;;;2.70;2.50;;;;;;;11.31;86.85;94555.22;5116942;28;20834;-81
2021/05/21 00:14:40;;;;;;;3.43;3.07;;;;;;;11.28;88.93;94555.50;5116412;28;20435;-81
2021/05/21 00:17:07;;;;;;;3.03;2.83;;;;;;;11.29;89.02;94560.59;5116422;28;20530;-80
2021/05/21 00:19:33;;;;;;;3.47;3.27;;;;;;;11.16;87.97;94563.53;5116626;28;21191;-81
2021/05/21 00:22:00;;;;;;;3.67;3.37;;;;;;;11.08;88.54;94560.78;5116131;28;21036;-80
2021/05/21 00:24:26;;;;;;;3.20;3.00;;;;;;;11.11;89.75;94565.75;5116396;28;20431;-81
2021/05/21 00:26:52;;;;;;;3.60;3.30;;;;;;;11.14;89.08;94564.63;5047216;28;20814;-82
2021/05/21 00:29:19;;;;;;;3.43;3.20;;;;;;;11.14;88.50;94569.88;5116132;28;20431;-81
2021/05/21 00:31:45;;;;;;;4.13;3.60;;;;;;;11.15;88.24;94582.03;5080316;28;20430;-80
2021/05/21 00:34:12;;;;;;;3.80;3.50;;;;;;;11.16;88.84;94584.53;5116342;28;20443;-81
2021/05/21 00:36:39;;;;;;;5.50;3.40;;;;;;;11.16;88.79;94589.78;5116537;28;20849;-81
2021/05/21 00:39:06;;;;;;;3.73;3.43;;;;;;;11.10;89.08;94595.59;5116030;28;21012;-81
2021/05/21 00:41:33;;;;;;;4.40;3.50;;;;;;;11.12;88.94;94592.84;5116239;28;20450;-81
2021/05/21 00:43:59;;;;;;;3.90;3.60;;;;;;;11.10;88.32;94611.34;5116285;28;20439;-81
2021/05/21 00:46:26;;;;;;;3.70;3.40;;;;;;;11.13;88.89;94621.56;5116339;28;20779;-81
2021/05/21 00:48:52;;;;;;;3.77;3.47;;;;;;;11.24;89.09;94622.38;5115495;28;20512;-81
2021/05/21 00:51:20;;;;;;;3.77;3.47;;;;;;;11.26;88.49;94630.94;5115789;28;20481;-82
2021/05/21 00:53:46;;;;;;;2.90;2.70;;;;;;;11.26;87.82;94630.94;5116190;28;20438;-81
2021/05/21 00:56:13;;;;;;;4.47;3.50;;;;;;;11.37;87.27;94634.28;5116209;28;20960;-81
2021/05/21 00:58:39;;;;;;;4.77;3.90;;;;;;;11.41;87.25;94637.44;5116365;28;20442;-81
2021/05/21 01:01:06;;;;;;;4.10;3.83;;;;;;;11.43;87.94;94628.44;5115695;28;20447;-81
2021/05/21 01:03:32;;;;;;;4.30;3.87;;;;;;;11.47;87.39;94639.50;5116310;28;20968;-81
2021/05/21 01:05:59;;;;;;;4.13;3.83;;;;;;;11.45;87.99;94642.25;5115663;28;20525;-81
2021/05/21 01:08:26;;;;;;;3.33;3.13;;;;;;;11.49;87.85;94640.19;5115687;28;20478;-81
2021/05/21 01:10:52;;;;;;;3.43;3.17;;;;;;;11.51;87.63;94643.50;5079650;28;21065;-81
2021/05/21 01:13:19;;;;;;;4.27;3.87;;;;;;;11.49;87.13;94650.69;5115027;28;20454;-81
2021/05/21 01:15:45;;;;;;;3.63;3.43;;;;;;;11.51;87.18;94640.88;5079563;28;20511;-80
2021/05/21 01:18:12;;;;;;;4.07;3.77;;;;;;;11.50;87.81;94644.47;5114794;28;20442;-81
2021/05/21 01:20:40;;;;;;;4.23;3.93;;;;;;;11.42;88.19;94639.09;5115123;28;20439;-81
2021/05/21 01:23:07;;;;;;;4.30;3.90;;;;;;;11.45;88.66;94641.44;5115381;28;20462;-81
2021/05/21 01:25:35;;;;;;;4.00;3.70;;;;;;;11.43;89.82;94643.38;5114686;28;20934;-81
2021/05/21 01:28:01;;;;;;;4.10;3.67;;;;;;;11.42;89.11;94636.47;5114995;28;20470;-81
2021/05/21 01:30:29;;;;;;;4.80;4.40;;;;;;;11.42;89.60;94642.56;5114458;28;20535;-80
2021/05/21 01:33:04;;;;;;;4.50;4.10;;;;;;;11.44;89.16;94639.78;5114245;28;20488;-81
2021/05/21 01:35:31;;;;;;;4.80;4.40;;;;;;;11.45;88.75;94644.88;5114164;28;20445;-81
2021/05/21 01:37:58;;;;;;;4.47;4.13;;;;;;;11.48;89.62;94641.97;5114612;28;20437;-81
2021/05/21 01:40:24;;;;;;;4.00;3.70;;;;;;;11.55;89.34;94636.97;5114395;28;20446;-81
2021/05/21 01:42:51;;;;;;;3.70;3.40;;;;;;;11.53;88.94;94644.19;5114845;28;20438;-81
2021/05/21 01:45:17;;;;;;;4.40;4.00;;;;;;;11.52;88.83;94647.78;5114751;28;20443;-81
2021/05/21 01:47:47;;;;;;;4.40;4.00;;;;;;;11.53;89.21;94652.06;5114784;28;20489;-80
2021/05/21 01:50:14;;;;;;;3.93;3.63;;;;;;;11.55;89.14;94649.28;5114516;28;20488;-80
2021/05/21 01:52:41;;;;;;;4.83;3.70;;;;;;;11.58;88.59;94647.22;5114626;28;20805;-81
2021/05/21 01:55:10;;;;;;;9.40;7.87;;;;;;;11.60;88.07;94639.22;5114421;28;20435;-81
2021/05/21 01:57:38;;;;;;;26.00;18.70;;;;;;;11.58;88.30;94643.78;5114255;28;20452;-81
2021/05/21 02:00:05;;;;;;;18.40;13.23;;;;;;;11.54;88.51;94640.56;5114975;28;20484;-81
2021/05/21 02:02:32;;;;;;;13.00;9.37;;;;;;;11.47;89.16;94645.56;5115423;28;20443;-81
2021/05/21 02:04:58;;;;;;;4.00;3.70;;;;;;;11.45;88.19;94637.00;5095414;28;20435;-81
2021/05/21 02:07:25;;;;;;;4.50;4.10;;;;;;;11.44;90.57;94634.53;5114323;28;21008;-81
2021/05/21 02:09:55;;;;;;;4.07;3.77;;;;;;;11.39;89.56;94642.84;5114672;28;20435;-81
2021/05/21 02:12:23;;;;;;;3.37;3.07;;;;;;;11.40;90.50;94633.97;5115154;28;20791;-82
2021/05/21 02:14:49;;;;;;;4.20;3.83;;;;;;;11.37;90.34;94630.81;5114182;28;20442;-81
2021/05/21 02:17:16;;;;;;;3.90;3.60;;;;;;;11.40;89.52;94630.53;5113971;28;20784;-81
2021/05/21 02:19:42;;;;;;;6.20;3.13;;;;;;;11.38;89.40;94635.94;5115512;28;20423;-81
2021/05/21 02:22:09;;;;;;;3.17;2.97;;;;;;;11.36;90.08;94637.03;5061876;28;20450;-82
2021/05/21 02:24:36;;;;;;;3.43;3.13;;;;;;;11.40;90.02;94635.78;5114319;28;20538;-80
2021/05/21 02:27:03;;;;;;;4.10;3.73;;;;;;;11.34;89.13;94624.03;5114518;28;20431;-81
2021/05/21 02:29:30;;;;;;;4.53;3.67;;;;;;;11.34;89.86;94631.94;5114288;28;21020;-81
2021/05/21 02:31:56;;;;;;;5.20;3.80;;;;;;;11.42;89.67;94633.84;5114562;28;20461;-81
2021/05/21 02:34:23;;;;;;;3.67;3.37;;;;;;;11.35;90.40;94630.13;5114563;28;20771;-81
2021/05/21 02:36:49;;;;;;;4.53;3.93;;;;;;;11.35;90.63;94630.13;5078840;28;20443;-81
2021/05/21 02:39:15;;;;;;;3.47;3.17;;;;;;;11.32;90.37;94631.25;5114042;28;20443;-81
2021/05/21 02:41:42;;;;;;;3.63;3.33;;;;;;;11.24;91.19;94635.50;5114361;28;20443;-81
2021/05/21 02:44:08;;;;;;;3.30;3.00;;;;;;;11.33;91.58;94643.41;5115094;28;20492;-81
2021/05/21 02:46:35;;;;;;;4.23;3.83;;;;;;;11.35;91.41;94648.50;5114091;28;20910;-81
2021/05/21 02:49:02;;;;;;;3.67;3.33;;;;;;;11.41;92.13;94654.03;5114290;28;20475;-81
2021/05/21 02:51:28;;;;;;;3.67;3.37;;;;;;;11.40;92.15;94651.53;5113676;28;20961;-82
2021/05/21 02:53:55;;;;;;;3.83;3.30;;;;;;;11.44;92.22;94659.00;5113853;28;20415;-81
2021/05/21 02:56:21;;;;;;;3.93;3.40;;;;;;;11.46;92.70;94658.84;5114166;28;20442;-80
2021/05/21 02:58:47;;;;;;;3.50;2.67;;;;;;;11.34;93.51;94652.13;5114505;28;20438;-81
2021/05/21 03:01:14;;;;;;;3.50;3.20;;;;;;;11.33;94.31;94655.72;5114649;28;20788;-81
2021/05/21 03:03:41;;;;;;;2.80;2.60;;;;;;;11.29;95.38;94663.03;5113875;28;20455;-81
2021/05/21 03:06:07;;;;;;;2.90;2.70;;;;;;;11.28;95.43;94660.56;5113876;28;20435;-81
2021/05/21 03:08:34;;;;;;;2.80;2.60;;;;;;;11.24;95.03;94659.16;5113519;28;21003;-81
2021/05/21 03:11:00;;;;;;;2.73;2.53;;;;;;;11.20;96.50;94663.03;5113754;28;20454;-80
2021/05/21 03:13:26;;;;;;;2.13;1.93;;;;;;;11.14;96.67;94675.75;5095148;28;20447;-82
2021/05/21 03:15:53;;;;;;;2.40;2.20;;;;;;;11.12;97.37;94682.13;5113883;28;20431;-81
2021/05/21 03:18:22;;;;;;;2.87;2.67;;;;;;;11.00;98.10;94673.56;5113908;28;20443;-81
2021/05/21 03:20:50;;;;;;;2.67;2.47;;;;;;;10.93;98.58;94679.47;5095526;28;20949;-81
2021/05/21 03:23:17;;;;;;;2.50;2.30;;;;;;;10.85;99.64;94688.03;5113692;28;20439;-81
2021/05/21 03:25:43;;;;;;;3.83;2.50;;;;;;;10.82;99.65;94675.19;5113898;28;20441;-81
2021/05/21 03:28:10;;;;;;;3.40;3.10;;;;;;;10.90;100.00;94683.22;5113924;28;20485;-81
2021/05/21 03:30:38;;;;;;;2.90;2.70;;;;;;;10.88;100.00;94679.91;5117309;28;20442;-80
2021/05/21 03:33:05;;;;;;;2.60;2.40;;;;;;;10.96;100.00;94672.16;5118445;28;20442;-82
2021/05/21 03:35:31;;;;;;;3.40;3.10;;;;;;;10.96;100.00;94674.78;5118336;28;20463;-82
2021/05/21 03:37:59;;;;;;;3.93;3.50;;;;;;;10.97;100.00;94673.81;5118199;28;20451;-82
2021/05/21 03:40:25;;;;;;;2.93;2.73;;;;;;;11.00;100.00;94680.63;5118974;28;20442;-82
2021/05/21 03:42:52;;;;;;;3.27;2.97;;;;;;;11.01;100.00;94683.09;5117936;28;20430;-82
2021/05/21 03:45:18;;;;;;;4.00;3.60;;;;;;;11.03;100.00;94681.16;5117477;28;20454;-84
2021/05/21 03:47:46;;;;;;;4.03;3.70;;;;;;;11.08;100.00;94686.81;5119793;28;20884;-82
2021/05/21 03:50:13;;;;;;;3.53;3.33;;;;;;;11.20;100.00;94689.28;5121371;28;20439;-84
2021/05/21 03:52:40;;;;;;;3.23;3.00;;;;;;;11.22;100.00;94693.44;5119833;28;20489;-83
2021/05/21 03:55:10;;;;;;;4.43;4.03;;;;;;;11.23;100.00;94689.03;5121812;28;20470;-83
2021/05/21 03:57:37;;;;;;;4.23;3.47;;;;;;;11.28;100.00;94698.16;5121032;28;20439;-86
2021/05/21 04:00:05;;;;;;;3.47;3.17;;;;;;;11.30;100.00;94690.16;5124088;27;20465;-83
2021/05/21 04:02:32;;;;;;;3.83;3.53;;;;;;;11.33;100.00;94701.19;5122722;28;20472;-84
2021/05/21 04:04:59;;;;;;;5.13;4.63;;;;;;;11.38;100.00;94703.41;5125736;28;20449;-91
2021/05/21 04:07:25;;;;;;;3.93;3.53;;;;;;;11.41;100.00;94703.13;5126511;28;20435;-85
2021/05/21 04:09:52;;;;;;;5.30;4.80;;;;;;;11.33;100.00;94705.63;5122835;27;20435;-85
2021/05/21 04:12:19;;;;;;;4.70;4.30;;;;;;;11.28;100.00;94718.34;5086500;28;20545;-84
2021/05/21 04:14:46;;;;;;;4.50;4.10;;;;;;;11.31;100.00;94718.91;5122055;28;20446;-84
2021/05/21 04:17:12;;;;;;;4.13;3.83;;;;;;;11.37;100.00;94717.50;5125719;28;20460;-87
2021/05/21 04:19:39;;;;;;;6.37;4.30;;;;;;;11.37;100.00;94710.44;5122890;28;20458;-84
2021/05/21 04:22:05;;;;;;;4.43;4.07;;;;;;;11.31;100.00;94713.66;5124721;28;20450;-89
2021/05/21 04:24:32;;;;;;;5.00;4.60;;;;;;;11.34;100.00;94720.41;5127431;28;20446;-89
2021/05/21 04:29:40;;;;;;;7.93;4.43;;;;;;;11.49;100.00;94717.22;5126938;28;20466;-89
2021/05/21 04:32:16;;;;;;;4.57;4.20;;;;;;;11.73;100.00;94722.03;5127309;28;20474;-90
2021/05/21 04:34:44;;;;;;;5.00;4.60;;;;;;;12.02;100.00;94721.16;5127234;28;20450;-89
2021/05/21 04:37:11;;;;;;;4.57;4.17;;;;;;;12.17;99.79;94727.63;5127375;28;20419;-90
2021/05/21 04:39:38;;;;;;;5.60;4.70;;;;;;;12.26;98.27;94733.81;5127563;28;20451;-90
2021/05/21 04:47:28;;;;;;;5.20;4.80;;;;;;;12.02;98.21;94739.56;5112498;28;20488;-90
2021/05/21 04:49:54;;;;;;;4.40;4.10;;;;;;;12.01;98.32;94741.38;5107225;28;20451;-90
2021/05/21 04:52:21;;;;;;;4.20;3.90;;;;;;;12.04;99.36;94750.78;5106772;28;21109;-94
2021/05/21 04:54:47;;;;;;;4.30;4.00;;;;;;;12.01;98.83;94754.50;5107433;28;20459;-93
2021/05/21 04:57:14;;;;;;;4.43;4.07;;;;;;;11.89;98.10;94749.56;5106699;28;20451;-89
2021/05/21 05:00:22;;;;;;;4.40;4.00;;;;;;;11.88;98.00;94753.19;5104924;28;20439;-90
2021/05/21 05:02:50;;;;;;;4.80;4.40;;;;;;;11.87;98.85;94754.16;5044673;28;20450;-91
2021/05/21 05:05:16;;;;;;;4.30;3.90;;;;;;;11.81;98.27;94757.31;5045200;28;20476;-89
2021/05/21 05:07:43;;;;;;;16.43;5.20;;;;;;;11.76;98.66;94771.69;5045110;28;20504;-91
2021/05/21 05:10:35;;;;;;;4.07;3.67;;;;;;;11.72;99.09;94780.81;5044135;28;20534;-91
2021/05/21 05:13:22;;;;;;;4.57;4.17;;;;;;;11.76;98.37;94782.19;4985546;28;20454;-93
2021/05/21 05:15:53;;;;;;;4.30;4.00;;;;;;;11.82;98.60;94790.53;4966618;29;20501;-91
2021/05/21 05:18:20;;;;;;;27.10;8.30;;;;;;;12.49;100.00;94795.66;4963169;29;20464;-80
2021/05/21 05:20:47;;;;;;;4.20;3.90;;;;;;;13.19;100.00;94796.84;4958025;29;20458;-86
2021/05/21 05:25:55;;;;;;;4.70;4.40;;;;;;;12.93;96.39;94794.06;4921649;29;20820;-87
2021/05/21 05:28:21;;;;;;;4.60;4.30;;;;;;;12.87;96.15;94793.81;4978497;28;20522;-86
2021/05/21 05:30:48;;;;;;;9.33;3.73;;;;;;;12.83;96.72;94805.63;4983129;28;20448;-86
2021/05/21 05:35:56;;;;;;;4.03;3.73;;;;;;;12.78;98.75;94806.06;4981271;28;20437;-89
2021/05/21 05:38:23;;;;;;;6.77;5.17;;;;;;;12.78;99.13;94806.06;5018308;28;20436;-87
2021/05/21 05:40:49;;;;;;;4.53;4.23;;;;;;;12.94;97.81;94816.78;5063777;28;20449;-85
2021/05/21 05:43:16;;;;;;;6.40;4.20;;;;;;;13.15;97.73;94820.97;5080086;28;20431;-85
2021/05/21 05:45:42;;;;;;;5.70;5.17;;;;;;;13.18;94.63;94823.34;5084570;28;20199;-86
2021/05/21 05:48:09;;;;;;;3.47;3.27;;;;;;;13.28;99.25;94832.03;5103000;28;20476;-85
2021/05/21 05:50:36;;;;;;;6.78;4.65;;;;;;;13.02;95.08;94818.72;5105077;28;20440;-88
2021/05/21 05:53:04;;;;;;;10.47;6.90;;;;;;;12.99;99.20;94829.50;5105987;28;20261;-87
2021/05/21 05:55:32;;;;;;;5.93;3.60;;;;;;;13.07;100.00;94832.25;5104746;28;20448;-89
2021/05/21 05:57:59;;;;;;;6.97;5.30;;;;;;;13.24;100.00;94831.50;5103094;28;20444;-89
2021/05/21 06:00:26;;;;;;;4.50;4.20;;;;;;;13.42;100.00;94839.44;5126857;28;20427;-87
2021/05/21 06:03:00;;;;;;;4.40;4.00;;;;;;;13.31;95.31;94843.13;5126177;28;21010;-89
2021/05/21 06:05:28;;;;;;;3.97;3.33;;;;;;;13.35;95.22;94846.28;5127386;27;20453;-88
2021/05/21 06:07:56;;;;;;;3.13;2.90;;;;;;;13.32;94.10;94846.59;5125508;28;20560;-83
2021/05/21 06:10:22;;;;;;;6.53;4.27;;;;;;;13.35;95.34;94837.56;5122921;28;20530;-81
2021/05/21 06:12:49;;;;;;;9.03;5.80;;;;;;;13.67;100.00;94839.69;5123805;28;20467;-83
2021/05/21 06:15:15;;;;;;;7.13;3.30;;;;;;;13.54;94.50;94854.06;5122203;28;20440;-82
2021/05/21 06:17:43;;;;;;;6.20;4.10;;;;;;;13.67;100.00;94845.78;5121445;28;20441;-85
2021/05/21 06:20:10;;;;;;;3.00;2.70;;;;;;;13.67;91.77;94856.34;5125611;27;20449;-87
2021/05/21 06:22:37;;;;;;;4.53;3.13;;;;;;;13.64;93.61;94849.56;5087576;28;20942;-84
2021/05/21 06:25:08;;;;;;;4.03;3.73;;;;;;;13.74;95.57;94856.56;5121635;27;20471;-85
2021/05/21 06:27:34;;;;;;;5.20;4.20;;;;;;;13.93;95.03;94848.50;5084825;28;20444;-83
2021/05/21 06:30:02;;;;;;;10.03;4.40;;;;;;;14.14;95.69;94856.09;5119962;28;20497;-84
2021/05/21 06:32:28;;;;;;;3.93;3.57;;;;;;;13.92;89.35;94852.13;5108782;28;20465;-84
2021/05/21 06:34:54;;;;;;;4.47;3.87;;;;;;;13.89;89.75;94860.34;5101400;28;20461;-84
2021/05/21 06:37:21;;;;;;;4.10;2.90;;;;;;;13.89;91.99;94857.72;5101970;28;20443;-87
2021/05/21 06:39:51;;;;;;;4.57;3.70;;;;;;;13.94;91.18;94866.00;5081288;28;20444;-86
2021/05/21 06:42:19;;;;;;;7.70;5.00;;;;;;;14.03;93.85;94867.72;5114888;28;20434;-82
2021/05/21 06:44:45;;;;;;;5.43;4.00;;;;;;;14.04;90.87;94868.56;5118074;28;20448;-83
2021/05/21 06:47:12;;;;;;;3.80;3.30;;;;;;;13.95;87.82;94883.50;5117610;28;20459;-82
2021/05/21 06:49:39;;;;;;;4.17;3.83;;;;;;;14.32;99.87;94877.19;5115492;28;20486;-80
2021/05/21 06:52:06;;;;;;;4.10;3.70;;;;;;;15.11;100.00;94864.69;5079613;28;20466;-80
2021/05/21 06:54:35;;;;;;;6.53;3.77;;;;;;;15.71;94.33;94879.66;5114297;28;20443;-82
2021/05/21 06:57:01;;;;;;;3.40;3.10;;;;;;;16.11;86.41;94877.06;5115013;28;20447;-82
2021/05/21 06:59:29;;;;;;;6.17;2.80;;;;;;;16.13;81.44;94882.19;5117256;28;20499;-83
2021/05/21 07:01:55;;;;;;;6.53;3.63;;;;;;;16.13;76.70;94887.47;5117961;28;20438;-82
2021/05/21 07:04:21;;;;;;;5.20;3.33;;;;;;;15.86;80.36;94890.41;5116648;28;20443;-81
2021/05/21 07:06:48;;;;;;;16.80;7.23;;;;;;;16.16;86.69;94881.03;5120129;27;20453;-83
2021/05/21 07:09:14;;;;;;;7.53;5.07;;;;;;;16.27;78.59;94894.78;5120236;28;20805;-83
2021/05/21 07:11:41;;;;;;;7.47;3.60;;;;;;;16.27;77.64;94899.25;5120038;28;20454;-83
2021/05/21 07:14:09;;;;;;;7.63;3.53;;;;;;;16.58;82.86;94891.47;5120171;28;20548;-80
2021/05/21 07:16:36;;;;;;;9.30;3.80;;;;;;;16.72;80.50;94894.31;5120113;28;20444;-82
2021/05/21 07:19:03;;;;;;;10.13;3.53;;;;;;;16.89;77.61;94904.88;5100475;28;20439;-83
2021/05/21 07:21:29;;;;;;;5.30;4.80;;;;;;;17.20;85.24;94897.84;5101744;27;20444;-86
2021/05/21 07:23:55;;;;;;;8.03;3.77;;;;;;;17.07;73.57;94907.34;5118765;28;20446;-84
2021/05/21 07:26:23;;;;;;;7.50;3.73;;;;;;;16.81;77.47;94907.56;5119614;28;20440;-82
2021/05/21 07:28:50;;;;;;;2.97;2.70;;;;;;;16.53;73.15;94909.69;5101659;28;20484;-83
2021/05/21 07:31:17;;;;;;;4.20;3.30;;;;;;;16.26;76.43;94909.03;5120751;27;20456;-83
2021/05/21 07:33:45;;;;;;;6.83;3.80;;;;;;;16.29;80.57;94907.88;5119199;28;20429;-83
2021/05/21 07:36:11;;;;;;;4.40;4.10;;;;;;;16.03;83.43;94908.81;5120395;27;20429;-83
2021/05/21 07:38:38;;;;;;;6.50;5.10;;;;;;;16.41;89.65;94909.19;5118162;28;20457;-82
2021/05/21 07:41:04;;;;;;;5.90;4.40;;;;;;;16.69;79.42;94921.13;5118233;28;20490;-81
2021/05/21 07:43:31;;;;;;;2.40;2.30;;;;;;;16.92;76.81;94910.69;5115041;28;20440;-81
2021/05/21 07:45:57;;;;;;;3.80;3.50;;;;;;;16.96;77.50;94912.00;5069231;28;20948;-83
2021/05/21 07:48:26;;;;;;;3.20;2.70;;;;;;;16.91;75.13;94921.44;5102697;28;20467;-83
2021/05/21 07:50:53;;;;;;;5.13;2.60;;;;;;;16.68;76.53;94922.13;5118136;28;20446;-82
2021/05/21 07:53:20;;;;;;;4.50;3.50;;;;;;;16.76;80.73;94923.13;5102561;28;20428;-80
2021/05/21 07:55:47;;;;;;;4.50;4.10;;;;;;;17.29;76.49;94922.53;5097590;28;20185;-82
2021/05/21 07:58:14;;;;;;;2.60;2.40;;;;;;;17.94;75.32;94920.47;5098386;28;20439;-81
2021/05/21 08:00:41;;;;;;;3.10;2.80;;;;;;;18.39;69.71;94926.81;5116053;28;20537;-80
2021/05/21 08:03:08;;;;;;;3.73;2.87;;;;;;;18.66;67.91;94929.97;5116822;28;20447;-83
2021/05/21 08:05:34;;;;;;;3.07;2.87;;;;;;;18.86;67.30;94936.47;5118218;28;20429;-82
2021/05/21 08:08:02;;;;;;;3.07;2.87;;;;;;;18.90;67.29;94935.09;5118911;28;20469;-83
2021/05/21 08:10:28;;;;;;;3.50;2.57;;;;;;;18.54;69.63;94925.06;5119424;28;20440;-82
2021/05/21 08:12:55;;;;;;;3.80;3.50;;;;;;;18.39;65.69;94939.28;5116796;28;20456;-82
2021/05/21 08:15:21;;;;;;;4.33;2.80;;;;;;;18.07;70.74;94941.16;5116296;28;20463;-81
2021/05/21 08:17:48;;;;;;;4.53;3.20;;;;;;;17.88;65.92;94939.75;5099151;28;20451;-82
2021/05/21 08:20:15;;;;;;;5.80;2.80;;;;;;;17.44;67.21;94941.22;5119832;28;20439;-82
2021/05/21 08:22:42;;;;;;;5.30;3.17;;;;;;;17.29;72.35;94947.22;5117980;28;20443;-82
2021/05/21 08:25:11;;;;;;;3.80;3.20;;;;;;;17.22;70.73;94954.22;5117883;28;20441;-89
2021/05/21 08:27:37;;;;;;;4.33;3.30;;;;;;;16.53;69.74;94957.38;5125598;28;20460;-86
2021/05/21 08:30:07;;;;;;;3.83;3.57;;;;;;;16.10;71.99;94964.59;5123420;28;20475;-87
2021/05/21 08:32:35;;;;;;;4.27;3.30;;;;;;;15.77;74.25;94967.13;5126765;28;20454;-86
2021/05/21 08:35:24;;;;;;;4.80;4.30;;;;;;;15.48;74.32;94971.94;5126318;28;20788;-88
2021/05/21 08:37:53;;;;;;;3.27;3.07;;;;;;;15.27;75.23;94980.25;5084162;28;20861;-88
2021/05/21 08:40:26;;;;;;;3.87;3.43;;;;;;;15.15;76.81;94984.16;5083207;28;20466;-88
2021/05/21 08:42:58;;;;;;;4.20;3.90;;;;;;;15.08;76.96;94980.47;5083331;28;20444;-89
2021/05/21 08:45:25;;;;;;;4.00;3.70;;;;;;;15.00;77.53;94983.03;5084311;28;20484;-90
2021/05/21 08:50:32;;;;;;;3.87;3.20;;;;;;;15.39;82.61;94986.94;5072788;28;20441;-81
2021/05/21 08:52:59;;;;;;;2.90;2.70;;;;;;;16.01;86.43;94979.63;5072788;28;20488;-81
2021/05/21 08:55:26;;;;;;;3.03;2.83;;;;;;;16.44;82.75;94985.66;5085802;28;20449;-81
2021/05/21 08:57:52;;;;;;;3.73;3.37;;;;;;;16.49;73.79;94996.63;5115295;28;20481;-82
2021/05/21 09:00:19;;;;;;;4.63;3.00;;;;;;;16.55;71.93;94992.47;5115908;28;20489;-81
2021/05/21 09:02:46;;;;;;;12.23;4.00;;;;;;;16.38;74.94;94992.44;5096787;28;20443;-81
2021/05/21 09:05:13;;;;;;;7.17;3.60;;;;;;;16.77;76.71;94983.94;5115030;28;20443;-81
2021/05/21 09:07:41;;;;;;;6.90;4.30;;;;;;;17.30;75.76;94999.28;5115071;28;20502;-81
2021/05/21 09:10:10;;;;;;;10.80;4.00;;;;;;;17.79;82.74;94993.88;5115164;27;20981;-78
2021/05/21 09:12:38;;;;;;;4.70;3.90;;;;;;;17.83;75.05;95005.81;5114533;28;20927;-80
2021/05/21 09:15:08;;;;;;;4.30;4.00;;;;;;;17.94;79.48;94999.31;5115286;28;20504;-80
2021/05/21 09:17:34;;;;;;;3.67;3.30;;;;;;;18.09;73.40;95007.38;5115882;28;20503;-82
2021/05/21 09:20:01;;;;;;;5.13;3.60;;;;;;;17.90;67.99;95017.38;5117198;28;20439;-81
2021/05/21 09:22:27;;;;;;;4.93;4.30;;;;;;;17.56;68.04;95014.16;5117479;28;20435;-83
2021/05/21 09:24:54;;;;;;;6.97;4.47;;;;;;;17.33;71.12;95017.50;5115790;28;20443;-79
2021/05/21 09:27:21;;;;;;;3.83;3.43;;;;;;;17.07;71.29;95016.06;5116476;28;20432;-84
2021/05/21 09:29:49;;;;;;;16.03;4.87;;;;;;;17.02;72.56;95011.22;5116743;28;20875;-83
2021/05/21 09:32:21;;;;;;;13.93;4.80;;;;;;;17.03;70.54;95012.88;5116518;28;20450;-83
2021/05/21 09:34:59;;;;;;;9.80;4.00;;;;;;;17.06;71.57;95012.59;5118888;28;20445;-81
2021/05/21 09:37:27;;;;;;;4.23;3.87;;;;;;;17.19;71.28;95012.88;5118673;28;20859;-85
2021/05/21 09:40:05;;;;;;;9.83;4.30;;;;;;;17.39;69.56;95023.97;5119047;28;20811;-83
2021/05/21 09:42:44;;;;;;;4.20;3.90;;;;;;;17.32;69.69;95013.19;5118426;28;20514;-82
2021/05/21 09:45:17;;;;;;;8.40;4.80;;;;;;;17.33;70.82;95004.25;5118451;28;21040;-83
2021/05/21 09:47:52;;;;;;;6.40;4.20;;;;;;;17.20;70.19;95016.38;5116723;28;20439;-82
2021/05/21 09:50:18;;;;;;;5.00;4.60;;;;;;;17.00;70.56;95015.88;5116447;28;20449;-83
2021/05/21 09:52:46;;;;;;;5.60;4.53;;;;;;;16.73;72.51;95017.03;5118443;27;20478;-85
2021/05/21 09:55:12;;;;;;;7.50;5.90;;;;;;;16.46;72.19;95015.47;5122788;28;20435;-85
2021/05/21 09:57:40;;;;;;;7.17;4.97;;;;;;;15.99;73.10;95023.13;5083071;28;20581;-86
2021/05/21 10:00:09;;;;;;;4.80;4.40;;;;;;;16.05;83.78;95025.97;5118623;28;20450;-82
2021/05/21 10:02:38;;;;;;;6.53;5.20;;;;;;;15.95;72.50;95038.50;5120251;28;20440;-88
2021/05/21 10:05:06;;;;;;;8.10;4.77;;;;;;;15.72;73.18;95035.59;5122273;28;20514;-86
2021/05/21 10:07:33;;;;;;;5.70;5.07;;;;;;;15.64;75.49;95040.00;5119722;28;20445;-82
2021/05/21 10:10:00;;;;;;;4.87;4.47;;;;;;;15.72;76.07;95038.22;5115479;28;20481;-80
2021/05/21 10:12:26;;;;;;;7.90;5.80;;;;;;;15.82;77.86;95038.09;5114890;28;20446;-80
2021/05/21 10:14:53;;;;;;;8.93;6.20;;;;;;;16.07;82.41;95039.03;5116771;28;20531;-81
2021/05/21 10:17:21;;;;;;;6.07;5.33;;;;;;;16.15;74.52;95057.59;5114495;28;20504;-81
2021/05/21 10:19:51;;;;;;;5.33;4.93;;;;;;;16.24;73.87;95054.00;5079608;28;20529;-81
2021/05/21 10:22:24;;;;;;;5.43;4.67;;;;;;;16.54;74.47;95054.41;5114693;28;20436;-81
2021/05/21 10:24:56;;;;;;;5.57;5.03;;;;;;;16.79;72.95;95061.44;5114620;28;20429;-81
2021/05/21 10:27:27;;;;;;;6.43;5.47;;;;;;;17.02;73.36;95054.47;5115490;28;20444;-84
2021/05/21 10:29:57;;;;;;;7.57;6.40;;;;;;;17.07;70.51;95055.84;5118332;28;20466;-83
2021/05/21 10:32:28;;;;;;;6.90;6.27;;;;;;;16.97;73.37;95040.91;5116825;28;20443;-83
2021/05/21 10:34:56;;;;;;;6.43;5.90;;;;;;;17.06;72.09;95062.09;5116938;28;20423;-84
2021/05/21 10:37:26;;;;;;;5.60;4.80;;;;;;;17.19;70.90;95060.63;5117619;28;20516;-82
2021/05/21 10:40:13;;;;;;;4.70;4.30;;;;;;;17.54;70.86;95058.59;5119608;28;20431;-84
2021/05/21 10:42:45;;;;;;;4.50;4.10;;;;;;;17.69;67.84;95054.31;5119188;28;20457;-83
2021/05/21 10:45:17;;;;;;;4.90;4.43;;;;;;;17.74;71.64;95056.44;5118350;28;20446;-80
2021/05/21 10:47:46;;;;;;;4.13;3.83;;;;;;;17.88;66.83;95058.38;5119373;28;20927;-82
2021/05/21 10:50:19;;;;;;;5.20;4.70;;;;;;;17.95;73.77;95046.94;5118245;28;20485;-81
2021/05/21 10:53:04;;;;;;;4.93;4.53;;;;;;;17.95;69.26;95046.09;5117928;28;20472;-80
2021/05/21 10:55:49;;;;;;;4.33;4.03;;;;;;;17.94;64.81;95055.91;5099857;28;20442;-79
2021/05/21 10:58:17;;;;;;;4.27;3.97;;;;;;;17.99;69.40;95054.56;5117922;28;20955;-78
2021/05/21 11:01:17;;;;;;;11.20;4.13;;;;;;;18.05;67.68;95051.19;5117732;28;20463;-83
2021/05/21 11:04:05;;;;;;;4.30;3.90;;;;;;;18.33;67.07;95054.25;5117732;28;20460;-81
2021/05/21 11:06:42;;;;;;;6.83;4.20;;;;;;;18.31;63.79;95064.22;5118123;28;20895;-83
2021/05/21 11:09:11;;;;;;;5.10;4.47;;;;;;;18.25;63.55;95053.28;5119890;28;20472;-86
2021/05/21 11:11:54;;;;;;;6.30;4.03;;;;;;;18.20;63.97;95060.09;5126019;28;20205;-87
2021/05/21 11:14:49;;;;;;;9.00;4.50;;;;;;;18.11;64.43;95061.97;5123120;28;20537;-85
2021/05/21 11:17:25;;;;;;;5.20;4.70;;;;;;;17.90;64.17;95069.66;5118680;28;20427;-83
2021/05/21 11:19:56;;;;;;;10.10;5.13;;;;;;;17.53;65.16;95070.22;5119261;28;20460;-83
2021/05/21 11:22:31;;;;;;;7.23;5.13;;;;;;;17.04;67.76;95070.22;5119714;28;20580;-83
2021/05/21 11:25:03;;;;;;;5.50;5.00;;;;;;;16.84;68.10;95071.56;5084404;28;20458;-85
2021/05/21 11:27:34;;;;;;;7.33;4.97;;;;;;;16.73;68.98;95073.50;5117359;28;20451;-83
2021/05/21 11:30:05;;;;;;;9.43;8.43;;;;;;;16.61;69.06;95064.19;5120158;28;20485;-84
2021/05/21 11:32:33;;;;;;;10.00;7.87;;;;;;;16.61;68.91;95071.31;5084722;28;20435;-84
2021/05/21 11:35:00;;;;;;;5.40;4.90;;;;;;;16.57;69.67;95068.16;5119977;28;20476;-84
2021/05/21 11:37:29;;;;;;;6.03;4.77;;;;;;;16.45;68.84;95069.44;5100634;28;20572;-83
2021/05/21 11:40:01;;;;;;;6.00;5.50;;;;;;;16.46;70.08;95063.16;5118570;28;20465;-81
2021/05/21 12:35:50;;;;;;;6.90;5.80;;;;;;;17.73;67.22;95079.50;5152460;27;20486;-80
2021/05/21 12:38:19;;;;;;;12.50;8.60;;;;;;;17.78;68.61;95076.34;5096334;28;20438;-79
2021/05/21 12:40:49;;;;;;;7.33;4.67;;;;;;;18.05;68.31;95073.28;5131193;28;20534;-81
2021/05/21 12:43:16;;;;;;;4.40;4.10;;;;;;;18.33;65.81;95070.19;5133210;28;20450;-81
2021/05/21 12:45:53;;;;;;;6.73;5.03;;;;;;;18.43;66.41;95082.25;5132244;28;20534;-82